createdAt,value
2023-01-29T00:01:36.018Z,78.33
2023-01-29T00:04:20.279Z,78.20
2023-01-29T00:07:04.238Z,77.91
2023-01-29T00:09:48.231Z,78.17
2023-01-29T00:12:32.556Z,78.50
2023-01-29T00:15:18.538Z,78.34
2023-01-29T00:18:02.472Z,77.23
2023-01-29T00:20:46.541Z,77.05
2023-01-29T00:23:30.503Z,77.28
2023-01-29T00:26:14.521Z,77.02
2023-01-29T00:29:02.797Z,77.06
2023-01-29T00:31:48.241Z,77.18
2023-01-29T00:34:33.183Z,77.98
2023-01-29T00:37:17.234Z,76.94
2023-01-29T00:40:01.887Z,77.36
2023-01-29T00:43:05.214Z,77.07
2023-01-29T00:45:49.263Z,76.65
2023-01-29T00:48:35.614Z,76.66
2023-01-29T00:51:19.587Z,76.79
2023-01-29T00:54:07.033Z,77.23
2023-01-29T00:56:51.015Z,77.52
2023-01-29T00:59:35.037Z,77.87
2023-01-29T01:02:36.395Z,77.49
2023-01-29T01:05:22.678Z,76.87
2023-01-29T01:08:27.923Z,77.84
2023-01-29T01:11:10.855Z,78.17
2023-01-29T01:13:55.272Z,77.92
2023-01-29T01:16:39.281Z,78.09
2023-01-29T01:19:23.222Z,77.29
2023-01-29T01:22:08.767Z,78.06
2023-01-29T01:24:52.684Z,77.46
2023-01-29T01:27:41.061Z,77.55
2023-01-29T01:30:25.613Z,77.90
2023-01-29T01:33:09.638Z,78.06
2023-01-29T01:35:53.696Z,77.87
2023-01-29T01:38:44.714Z,78.06
2023-01-29T01:41:28.736Z,78.61
2023-01-29T01:44:45.860Z,78.36
2023-01-29T01:47:35.090Z,78.32
2023-01-29T01:50:23.369Z,78.98
2023-01-29T01:53:10.420Z,78.60
2023-01-29T01:56:00.765Z,78.89
2023-01-29T01:58:50.673Z,78.19
2023-01-29T02:01:34.972Z,78.40
2023-01-29T02:04:41.616Z,79.22
2023-01-29T02:07:43.269Z,79.11
2023-01-29T02:10:32.424Z,79.25
2023-01-29T02:13:18.973Z,78.59
2023-01-29T02:16:02.893Z,77.65
2023-01-29T02:18:46.982Z,77.45
2023-01-29T02:22:03.653Z,77.99
2023-01-29T02:25:24.635Z,77.98
2023-01-29T02:28:22.133Z,77.47
2023-01-29T02:31:14.098Z,77.29
2023-01-29T02:34:10.147Z,78.46
2023-01-29T02:37:04.223Z,78.55
2023-01-29T02:39:54.733Z,78.38
2023-01-29T02:42:47.168Z,78.58
2023-01-29T02:45:36.862Z,79.20
2023-01-29T02:48:24.362Z,79.35
2023-01-29T02:51:20.479Z,79.54
2023-01-29T02:54:08.925Z,79.43
2023-01-29T02:56:57.456Z,79.00
2023-01-29T02:59:45.530Z,79.41
2023-01-29T03:02:38.436Z,78.96
2023-01-29T03:05:30.203Z,78.61
2023-01-29T03:08:21.643Z,78.66
2023-01-29T03:11:08.381Z,78.39
2023-01-29T03:14:00.493Z,78.61
2023-01-29T03:16:50.636Z,78.46
2023-01-29T03:19:39.827Z,77.82
2023-01-29T03:22:34.308Z,78.35
2023-01-29T03:25:39.231Z,78.86
2023-01-29T03:28:42.233Z,79.39
2023-01-29T03:31:45.813Z,78.90
2023-01-29T03:34:38.995Z,78.77
2023-01-29T03:37:31.046Z,79.02
2023-01-29T03:40:16.570Z,79.20
2023-01-29T03:43:11.437Z,79.43
2023-01-29T03:46:02.837Z,79.78
2023-01-29T03:48:57.541Z,80.41
2023-01-29T03:51:49.540Z,80.49
2023-01-29T03:54:46.009Z,80.87
2023-01-29T03:57:36.111Z,81.00
2023-01-29T04:00:26.100Z,81.47
2023-01-29T04:03:21.859Z,82.28
2023-01-29T04:06:12.614Z,82.29
2023-01-29T04:09:07.593Z,81.71
2023-01-29T04:12:03.445Z,82.13
2023-01-29T04:14:49.778Z,82.87
2023-01-29T04:17:39.136Z,83.30
2023-01-29T04:20:37.746Z,83.80
2023-01-29T04:23:23.296Z,84.14
2023-01-29T04:26:25.567Z,84.01
2023-01-29T04:29:38.128Z,85.62
2023-01-29T04:32:30.741Z,86.17
2023-01-29T04:35:27.755Z,86.77
2023-01-29T04:38:26.508Z,86.47
2023-01-29T04:41:18.190Z,87.22
2023-01-29T04:44:09.317Z,87.21
2023-01-29T04:47:04.986Z,87.01
2023-01-29T04:49:58.029Z,86.52
2023-01-29T04:52:49.589Z,86.72
2023-01-29T04:55:40.900Z,86.58
2023-01-29T04:58:33.723Z,85.92
2023-01-29T05:01:20.349Z,86.14
2023-01-29T05:04:09.753Z,86.53
2023-01-29T05:06:54.616Z,86.70
2023-01-29T05:09:40.386Z,86.44
2023-01-29T05:12:27.439Z,85.81
2023-01-29T05:15:15.899Z,86.23
2023-01-29T05:18:03.179Z,91.88
2023-01-29T05:20:49.460Z,86.20
2023-01-29T05:23:33.325Z,85.64
2023-01-29T05:26:34.301Z,86.40
2023-01-29T05:29:18.170Z,86.02
2023-01-29T05:32:02.335Z,86.41
2023-01-29T05:34:46.914Z,85.85
2023-01-29T05:37:32.084Z,86.18
2023-01-29T05:40:16.385Z,86.19
2023-01-29T05:43:00.453Z,86.14
2023-01-29T05:45:44.308Z,86.68
2023-01-29T05:48:31.500Z,86.90
2023-01-29T05:51:15.563Z,86.81
2023-01-29T05:54:01.031Z,87.86
2023-01-29T05:56:45.183Z,87.40
2023-01-29T05:59:31.297Z,86.48
2023-01-29T06:02:15.261Z,87.09
2023-01-29T06:04:59.221Z,86.31
2023-01-29T06:07:45.602Z,86.50
2023-01-29T06:10:31.222Z,85.86
2023-01-29T06:13:15.304Z,85.89
2023-01-29T06:15:59.396Z,86.11
2023-01-29T06:18:44.380Z,86.07
2023-01-29T06:21:28.449Z,84.78
2023-01-29T06:24:12.376Z,84.26
2023-01-29T06:26:57.774Z,84.57
2023-01-29T06:29:41.689Z,84.40
2023-01-29T06:32:25.751Z,83.55
2023-01-29T06:35:10.963Z,82.78
2023-01-29T06:37:55.067Z,81.76
2023-01-29T06:40:40.208Z,80.94
2023-01-29T06:43:25.644Z,80.42
2023-01-29T06:46:09.989Z,80.56
2023-01-29T06:48:53.897Z,80.15
2023-01-29T06:51:37.808Z,80.82
2023-01-29T06:54:21.667Z,80.49
2023-01-29T06:57:05.582Z,80.69
2023-01-29T06:59:50.826Z,80.95
2023-01-29T07:02:34.686Z,81.09
2023-01-29T07:05:18.555Z,81.21
2023-01-29T07:08:02.293Z,81.83
2023-01-29T07:10:46.211Z,81.03
2023-01-29T07:13:30.488Z,81.57
2023-01-29T07:16:15.852Z,89.31
2023-01-29T07:18:59.676Z,81.39
2023-01-29T07:21:43.409Z,80.82
2023-01-29T07:24:27.351Z,80.93
2023-01-29T07:27:11.290Z,79.97
2023-01-29T07:29:55.077Z,80.20
2023-01-29T07:32:40.291Z,79.37
2023-01-29T07:35:24.105Z,79.07
2023-01-29T07:38:08.614Z,78.35
2023-01-29T07:40:53.601Z,78.34
2023-01-29T07:43:37.453Z,77.94
2023-01-29T07:46:21.224Z,78.04
2023-01-29T07:49:06.430Z,77.30
2023-01-29T07:51:50.194Z,76.05
2023-01-29T07:54:33.901Z,77.30
2023-01-29T07:57:17.667Z,78.03
2023-01-29T08:00:01.494Z,76.54
2023-01-29T08:02:47.549Z,77.14
2023-01-29T08:05:32.756Z,77.72
2023-01-29T08:08:16.695Z,78.03
2023-01-29T08:11:03.133Z,77.91
2023-01-29T08:13:47.036Z,78.51
2023-01-29T08:16:30.901Z,78.96
2023-01-29T08:19:14.778Z,79.90
2023-01-29T08:21:59.965Z,80.17
2023-01-29T08:24:53.699Z,81.08
2023-01-29T08:27:43.941Z,82.40
2023-01-29T08:30:29.248Z,81.99
2023-01-29T08:33:13.315Z,83.41
2023-01-29T08:35:57.129Z,82.60
2023-01-29T08:38:42.361Z,82.90
2023-01-29T08:41:26.248Z,83.08
2023-01-29T08:44:10.337Z,82.81
2023-01-29T08:46:54.218Z,83.22
2023-01-29T08:49:37.989Z,82.31
2023-01-29T08:52:21.740Z,81.20
2023-01-29T08:55:07.973Z,80.34
2023-01-29T08:57:51.808Z,80.98
2023-01-29T09:00:36.329Z,81.06
2023-01-29T09:03:20.331Z,80.62
2023-01-29T09:06:04.474Z,81.35
2023-01-29T09:08:49.790Z,80.91
2023-01-29T09:11:35.024Z,81.44
2023-01-29T09:14:18.920Z,80.69
2023-01-29T09:17:02.694Z,81.11
2023-01-29T09:19:46.595Z,80.75
2023-01-29T09:22:30.471Z,80.20
2023-01-29T09:25:15.486Z,79.18
2023-01-29T09:28:00.891Z,80.45
2023-01-29T09:30:44.873Z,79.73
2023-01-29T09:33:29.266Z,79.33
2023-01-29T09:36:13.136Z,80.94
2023-01-29T09:38:56.891Z,81.53
2023-01-29T09:41:52.453Z,79.28
2023-01-29T09:44:50.989Z,80.27
2023-01-29T09:47:37.197Z,79.54
2023-01-29T09:50:25.028Z,79.56
2023-01-29T09:53:19.469Z,76.54
2023-01-29T09:56:07.247Z,77.03
2023-01-29T09:58:51.245Z,77.98
2023-01-29T10:01:44.623Z,77.20
2023-01-29T10:04:51.664Z,78.05
2023-01-29T10:08:06.957Z,77.35
2023-01-29T10:10:52.858Z,77.09
2023-01-29T10:13:45.913Z,76.18
2023-01-29T10:16:46.068Z,76.81
2023-01-29T10:20:01.724Z,75.32
2023-01-29T10:22:56.347Z,75.57
2023-01-29T10:25:43.292Z,73.80
2023-01-29T10:28:32.611Z,74.05
2023-01-29T10:31:22.229Z,74.52
2023-01-29T10:34:15.485Z,74.09
2023-01-29T10:36:59.367Z,74.26
2023-01-29T10:39:43.274Z,74.09
2023-01-29T10:42:33.399Z,73.73
2023-01-29T10:45:27.570Z,74.29
2023-01-29T10:48:36.712Z,74.35
2023-01-29T10:51:41.615Z,74.38
2023-01-29T10:54:41.882Z,73.69
2023-01-29T10:57:40.374Z,74.79
2023-01-29T11:00:27.686Z,73.70
2023-01-29T11:03:27.373Z,74.63
2023-01-29T11:06:19.167Z,74.56
2023-01-29T11:09:10.985Z,74.99
2023-01-29T11:11:59.441Z,74.53
2023-01-29T11:14:47.779Z,73.69
2023-01-29T11:17:31.733Z,73.86
2023-01-29T11:20:29.557Z,74.22
2023-01-29T11:23:28.405Z,74.04
2023-01-29T11:26:19.561Z,74.22
2023-01-29T11:29:03.487Z,73.89
2023-01-29T11:31:47.349Z,73.58
2023-01-29T11:34:32.323Z,73.52
2023-01-29T11:37:18.167Z,74.48
2023-01-29T11:40:02.230Z,73.06
2023-01-29T11:42:48.795Z,74.16
2023-01-29T11:45:35.020Z,73.02
2023-01-29T11:48:21.614Z,73.62
2023-01-29T11:51:06.530Z,73.25
2023-01-29T11:53:53.751Z,73.62
2023-01-29T11:56:43.977Z,73.38
2023-01-29T11:59:39.063Z,74.21
2023-01-29T12:02:30.755Z,74.22
2023-01-29T12:05:18.338Z,74.30
2023-01-29T12:08:03.573Z,74.23
2023-01-29T12:10:47.344Z,74.25
2023-01-29T12:13:31.156Z,75.05
2023-01-29T12:16:24.023Z,74.78
2023-01-29T12:19:16.204Z,74.89
2023-01-29T12:22:05.745Z,74.74
2023-01-29T12:24:54.954Z,74.18
2023-01-29T12:27:47.578Z,75.18
2023-01-29T12:30:39.619Z,74.24
2023-01-29T12:33:34.781Z,74.28
2023-01-29T12:36:24.529Z,74.25
2023-01-29T12:39:11.290Z,73.79
2023-01-29T12:41:59.337Z,73.43
2023-01-29T12:44:47.669Z,73.83
2023-01-29T12:47:37.152Z,74.35
2023-01-29T12:50:25.826Z,74.94
2023-01-29T12:53:26.623Z,74.80
2023-01-29T12:56:14.325Z,74.58
2023-01-29T12:59:01.681Z,74.25
2023-01-29T13:01:51.457Z,74.07
2023-01-29T13:04:41.474Z,74.29
2023-01-29T13:07:32.632Z,74.40
2023-01-29T13:10:20.262Z,73.99
2023-01-29T13:13:13.813Z,73.69
2023-01-29T13:16:00.198Z,74.97
2023-01-29T13:18:49.142Z,73.97
2023-01-29T13:21:39.107Z,74.00
2023-01-29T13:24:27.268Z,73.54
2023-01-29T13:27:22.333Z,71.93
2023-01-29T13:30:07.578Z,72.23
2023-01-29T13:32:54.400Z,71.32
2023-01-29T13:35:41.737Z,71.36
2023-01-29T13:38:29.515Z,70.43
2023-01-29T13:41:15.988Z,69.94
2023-01-29T13:43:59.908Z,69.31
2023-01-29T13:46:49.038Z,68.18
2023-01-29T13:49:38.028Z,69.30
2023-01-29T13:52:31.264Z,68.76
2023-01-29T13:55:26.323Z,68.02
2023-01-29T13:58:17.719Z,67.43
2023-01-29T14:01:02.434Z,67.49
2023-01-29T14:04:04.764Z,67.94
2023-01-29T14:06:51.516Z,67.04
2023-01-29T14:10:04.719Z,67.78
2023-01-29T14:12:55.683Z,67.60
2023-01-29T14:15:40.973Z,68.17
2023-01-29T14:18:26.419Z,67.91
2023-01-29T14:21:24.060Z,66.96
2023-01-29T14:24:18.581Z,66.75
2023-01-29T14:27:03.521Z,67.33
2023-01-29T14:29:47.867Z,67.15
2023-01-29T14:32:33.780Z,67.88
2023-01-29T14:35:21.603Z,67.63
2023-01-29T14:38:08.020Z,68.02
2023-01-29T14:40:52.403Z,66.98
2023-01-29T14:43:36.320Z,68.23
2023-01-29T14:46:47.234Z,67.28
2023-01-29T14:49:52.125Z,67.33
2023-01-29T14:52:41.580Z,66.72
2023-01-29T14:55:30.911Z,67.72
2023-01-29T14:58:17.605Z,67.59
2023-01-29T15:01:03.425Z,67.61
2023-01-29T15:03:49.977Z,66.90
2023-01-29T15:06:42.709Z,68.49
2023-01-29T15:09:37.037Z,68.61
2023-01-29T15:12:29.050Z,67.73
2023-01-29T15:15:19.076Z,68.04
2023-01-29T15:18:06.746Z,68.03
2023-01-29T15:20:50.498Z,68.96
2023-01-29T15:23:35.837Z,68.83
2023-01-29T15:26:21.774Z,69.07
2023-01-29T15:29:06.087Z,68.41
2023-01-29T15:31:49.980Z,68.43
2023-01-29T15:34:34.783Z,69.01
2023-01-29T15:37:31.042Z,69.14
2023-01-29T15:40:20.367Z,69.09
2023-01-29T15:43:04.107Z,70.39
2023-01-29T15:45:49.428Z,71.36
2023-01-29T15:48:37.346Z,70.21
2023-01-29T15:51:23.666Z,70.46
2023-01-29T15:54:15.670Z,71.04
2023-01-29T15:57:02.504Z,70.14
2023-01-29T15:59:51.758Z,69.95
2023-01-29T16:02:41.196Z,70.37
2023-01-29T16:05:29.509Z,69.78
2023-01-29T16:08:16.235Z,70.52
2023-01-29T16:11:03.140Z,70.51
2023-01-29T16:13:51.410Z,69.94
2023-01-29T16:16:35.362Z,70.70
2023-01-29T16:19:24.435Z,70.39
2023-01-29T16:22:10.119Z,70.82
2023-01-29T16:24:54.321Z,70.68
2023-01-29T16:27:38.261Z,70.77
2023-01-29T16:30:27.711Z,71.68
2023-01-29T16:33:15.627Z,71.40
2023-01-29T16:35:59.443Z,70.82
2023-01-29T16:38:44.515Z,71.74
2023-01-29T16:41:32.895Z,71.29
2023-01-29T16:44:32.852Z,71.68
2023-01-29T16:47:26.819Z,72.36
2023-01-29T16:50:27.808Z,72.09
2023-01-29T16:53:14.709Z,70.98
2023-01-29T16:56:04.422Z,70.43
2023-01-29T16:58:51.471Z,71.89
2023-01-29T17:01:37.474Z,71.49
2023-01-29T17:04:23.529Z,71.45
2023-01-29T17:07:07.355Z,72.09
2023-01-29T17:09:53.032Z,71.78
2023-01-29T17:12:38.872Z,71.01
2023-01-29T17:15:33.536Z,71.16
2023-01-29T17:18:20.403Z,71.14
2023-01-29T17:21:06.233Z,71.09
2023-01-29T17:23:50.089Z,70.36
2023-01-29T17:26:33.831Z,71.43
2023-01-29T17:29:21.989Z,70.78
2023-01-29T17:32:06.411Z,71.88
2023-01-29T17:34:50.225Z,71.24
2023-01-29T17:37:35.487Z,70.98
2023-01-29T17:40:31.069Z,71.56
2023-01-29T17:43:14.887Z,71.78
2023-01-29T17:45:58.818Z,70.79
2023-01-29T17:48:42.833Z,71.14
2023-01-29T17:51:26.789Z,71.36
2023-01-29T17:54:12.029Z,70.52
2023-01-29T17:56:56.494Z,70.34
2023-01-29T17:59:40.755Z,69.65
2023-01-29T18:02:29.084Z,70.10
2023-01-29T18:05:16.079Z,69.98
2023-01-29T18:08:00.170Z,69.73
2023-01-29T18:10:45.531Z,70.76
2023-01-29T18:13:29.855Z,69.22
2023-01-29T18:16:13.976Z,69.52
2023-01-29T18:18:57.769Z,70.18
2023-01-29T18:21:41.920Z,70.53
2023-01-29T18:24:26.813Z,69.94
2023-01-29T18:27:14.016Z,70.00
2023-01-29T18:29:58.353Z,69.66
2023-01-29T18:32:42.375Z,68.91
2023-01-29T18:35:26.829Z,69.07
2023-01-29T18:38:10.956Z,68.62
2023-01-29T18:40:54.965Z,68.46
2023-01-29T18:43:43.179Z,68.89
2023-01-29T18:46:27.342Z,68.84
2023-01-29T18:49:11.992Z,69.17
2023-01-29T18:51:56.141Z,69.81
2023-01-29T18:54:40.696Z,68.47
2023-01-29T18:58:25.060Z,68.58
2023-01-29T19:00:30.789Z,68.70
2023-01-29T19:03:15.089Z,69.42
2023-01-29T19:06:02.858Z,69.36
2023-01-29T19:08:48.140Z,69.41
2023-01-29T19:11:32.412Z,69.10
2023-01-29T19:14:16.399Z,70.18
2023-01-29T19:17:03.218Z,69.18
2023-01-29T19:19:47.543Z,68.62
2023-01-29T19:22:32.256Z,70.06
2023-01-29T19:25:17.724Z,69.90
2023-01-29T19:28:03.797Z,69.78
2023-01-29T19:30:48.052Z,70.17
2023-01-29T19:33:33.431Z,69.66
2023-01-29T19:36:17.244Z,69.86
2023-01-29T19:39:01.475Z,68.93
2023-01-29T19:41:45.683Z,69.85
2023-01-29T19:44:30.189Z,69.42
2023-01-29T19:47:14.811Z,69.03
2023-01-29T19:50:00.531Z,69.42
2023-01-29T19:52:52.286Z,70.05
2023-01-29T19:55:36.685Z,69.65
2023-01-29T19:58:21.581Z,69.11
2023-01-29T20:01:08.027Z,69.18
2023-01-29T20:03:52.295Z,69.55
2023-01-29T20:06:38.585Z,69.09
2023-01-29T20:09:22.939Z,70.04
2023-01-29T20:12:07.467Z,69.50
2023-01-29T20:14:52.314Z,69.56
2023-01-29T20:17:36.144Z,69.90
2023-01-29T20:20:20.892Z,69.42
2023-01-29T20:23:07.124Z,69.35
2023-01-29T20:25:51.187Z,69.45
2023-01-29T20:28:35.860Z,69.63
2023-01-29T20:31:19.716Z,69.04
2023-01-29T20:34:03.620Z,68.88
2023-01-29T20:36:47.474Z,68.91
2023-01-29T20:39:33.177Z,69.83
2023-01-29T20:42:17.435Z,69.55
2023-01-29T20:45:01.297Z,68.95
2023-01-29T20:47:47.793Z,68.64
2023-01-29T20:50:31.693Z,69.21
2023-01-29T20:53:15.689Z,68.63
2023-01-29T20:56:02.634Z,68.20
2023-01-29T20:58:47.993Z,68.03
2023-01-29T21:01:31.812Z,67.88
2023-01-29T21:04:15.586Z,67.01
2023-01-29T21:06:59.490Z,66.78
2023-01-29T21:09:43.265Z,67.20
2023-01-29T21:12:28.548Z,67.95
2023-01-29T21:15:12.826Z,67.07
2023-01-29T21:17:59.274Z,66.65
2023-01-29T21:20:43.124Z,66.62
2023-01-29T21:23:26.968Z,66.81
2023-01-29T21:26:10.839Z,66.61
2023-01-29T21:28:56.210Z,67.02
2023-01-29T21:31:40.313Z,66.53
2023-01-29T21:34:24.217Z,66.24
2023-01-29T21:37:09.444Z,67.18
2023-01-29T21:39:53.287Z,66.62
2023-01-29T21:42:54.633Z,67.72
2023-01-29T21:45:40.543Z,67.26
2023-01-29T21:48:25.045Z,66.95
2023-01-29T21:51:09.312Z,67.02
2023-01-29T21:53:53.100Z,66.72
2023-01-29T21:56:36.985Z,67.38
2023-01-29T21:59:21.773Z,67.91
2023-01-29T22:02:07.790Z,67.70
2023-01-29T22:04:52.399Z,68.59
2023-01-29T22:07:36.281Z,68.87
2023-01-29T22:10:21.078Z,68.54
2023-01-29T22:13:05.350Z,68.11
2023-01-29T22:15:49.116Z,67.81
2023-01-29T22:18:34.740Z,68.62
2023-01-29T22:21:18.573Z,68.91
2023-01-29T22:24:02.449Z,69.07
2023-01-29T22:26:48.420Z,68.67
2023-01-29T22:29:32.474Z,68.51
2023-01-29T22:32:16.901Z,68.57
2023-01-29T22:35:02.054Z,68.34
2023-01-29T22:37:47.337Z,67.23
2023-01-29T22:40:31.242Z,67.16
2023-01-29T22:43:14.992Z,67.12
2023-01-29T22:45:58.854Z,67.74
2023-01-29T22:48:42.727Z,67.04
2023-01-29T22:51:27.948Z,67.35
2023-01-29T22:54:12.763Z,66.44
2023-01-29T22:56:56.463Z,66.36
2023-01-29T22:59:40.939Z,66.61
2023-01-29T23:02:24.735Z,66.03
2023-01-29T23:05:09.312Z,66.06
2023-01-29T23:07:54.488Z,66.20
2023-01-29T23:10:38.757Z,65.33
2023-01-29T23:13:22.546Z,64.70
2023-01-29T23:16:08.205Z,64.80
2023-01-29T23:18:54.238Z,65.53
2023-01-29T23:21:38.247Z,64.64
2023-01-29T23:24:23.646Z,65.08
2023-01-29T23:27:15.487Z,64.08
2023-01-29T23:29:59.288Z,63.99
2023-01-29T23:32:43.106Z,63.89
2023-01-29T23:35:26.834Z,63.86
2023-01-29T23:38:10.656Z,64.02
2023-01-29T23:40:58.085Z,63.97
2023-01-29T23:43:41.971Z,64.21
2023-01-29T23:46:25.836Z,63.99
2023-01-29T23:49:10.344Z,63.71
2023-01-29T23:51:54.266Z,63.38
2023-01-29T23:54:38.051Z,63.11
2023-01-29T23:57:23.366Z,63.90
